sensor_id;sensor_type;location;lat;lon;timestamp;P1;durP1;ratioP1;P2;durP2;ratioP2
68792;SDS011;55778;54.346;10.210;2023-09-07T00:00:44;7.43;;;4.90;;
68792;SDS011;55778;54.346;10.210;2023-09-07T00:03:11;8.80;;;5.00;;
68792;SDS011;55778;54.346;10.210;2023-09-07T00:05:38;6.90;;;4.78;;
68792;SDS011;55778;54.346;10.210;2023-09-07T00:08:03;6.57;;;5.15;;
68792;SDS011;55778;54.346;10.210;2023-09-07T00:10:29;5.85;;;4.70;;
68792;SDS011;55778;54.346;10.210;2023-09-07T00:12:54;7.18;;;5.20;;
68792;SDS011;55778;54.346;10.210;2023-09-07T00:15:20;6.68;;;5.13;;
68792;SDS011;55778;54.346;10.210;2023-09-07T00:17:46;6.68;;;5.15;;
68792;SDS011;55778;54.346;10.210;2023-09-07T00:20:11;7.22;;;5.05;;
68792;SDS011;55778;54.346;10.210;2023-09-07T00:22:39;5.70;;;4.75;;
68792;SDS011;55778;54.346;10.210;2023-09-07T00:25:05;9.10;;;5.30;;
68792;SDS011;55778;54.346;10.210;2023-09-07T00:27:32;6.47;;;5.03;;
68792;SDS011;55778;54.346;10.210;2023-09-07T00:29:58;7.80;;;5.13;;
68792;SDS011;55778;54.346;10.210;2023-09-07T00:32:24;6.80;;;5.38;;
68792;SDS011;55778;54.346;10.210;2023-09-07T00:34:49;6.55;;;5.13;;
68792;SDS011;55778;54.346;10.210;2023-09-07T00:37:15;8.45;;;5.45;;
68792;SDS011;55778;54.346;10.210;2023-09-07T00:39:41;8.35;;;5.43;;
68792;SDS011;55778;54.346;10.210;2023-09-07T00:42:07;7.35;;;5.30;;
68792;SDS011;55778;54.346;10.210;2023-09-07T00:44:33;6.85;;;5.47;;
68792;SDS011;55778;54.346;10.210;2023-09-07T00:46:58;7.65;;;5.40;;
68792;SDS011;55778;54.346;10.210;2023-09-07T00:49:24;11.18;;;5.80;;
68792;SDS011;55778;54.346;10.210;2023-09-07T00:51:51;7.32;;;5.43;;
68792;SDS011;55778;54.346;10.210;2023-09-07T00:54:18;7.20;;;5.53;;
68792;SDS011;55778;54.346;10.210;2023-09-07T00:56:44;6.38;;;5.25;;
68792;SDS011;55778;54.346;10.210;2023-09-07T00:59:10;8.73;;;5.72;;
68792;SDS011;55778;54.346;10.210;2023-09-07T01:01:36;6.65;;;5.22;;
68792;SDS011;55778;54.346;10.210;2023-09-07T01:04:05;8.77;;;5.70;;
68792;SDS011;55778;54.346;10.210;2023-09-07T01:09:17;6.90;;;5.47;;
68792;SDS011;55778;54.346;10.210;2023-09-07T01:11:47;10.35;;;5.70;;
68792;SDS011;55778;54.346;10.210;2023-09-07T01:14:12;7.65;;;6.05;;
68792;SDS011;55778;54.346;10.210;2023-09-07T01:16:37;7.78;;;5.82;;
68792;SDS011;55778;54.346;10.210;2023-09-07T01:19:05;7.70;;;5.82;;
68792;SDS011;55778;54.346;10.210;2023-09-07T01:21:38;9.23;;;5.88;;
68792;SDS011;55778;54.346;10.210;2023-09-07T01:24:10;9.50;;;6.13;;
68792;SDS011;55778;54.346;10.210;2023-09-07T01:26:37;7.65;;;6.10;;
68792;SDS011;55778;54.346;10.210;2023-09-07T01:29:05;11.38;;;5.95;;
68792;SDS011;55778;54.346;10.210;2023-09-07T01:31:35;6.45;;;5.55;;
68792;SDS011;55778;54.346;10.210;2023-09-07T01:34:03;7.80;;;5.85;;
68792;SDS011;55778;54.346;10.210;2023-09-07T01:36:29;7.38;;;4.93;;
68792;SDS011;55778;54.346;10.210;2023-09-07T01:38:54;9.18;;;5.78;;
68792;SDS011;55778;54.346;10.210;2023-09-07T01:41:20;7.18;;;5.40;;
68792;SDS011;55778;54.346;10.210;2023-09-07T01:43:45;6.75;;;5.50;;
68792;SDS011;55778;54.346;10.210;2023-09-07T01:46:10;9.02;;;5.60;;
68792;SDS011;55778;54.346;10.210;2023-09-07T01:48:36;9.93;;;6.00;;
68792;SDS011;55778;54.346;10.210;2023-09-07T01:51:01;8.30;;;5.30;;
68792;SDS011;55778;54.346;10.210;2023-09-07T01:53:26;7.00;;;5.00;;
68792;SDS011;55778;54.346;10.210;2023-09-07T01:55:55;7.63;;;5.10;;
68792;SDS011;55778;54.346;10.210;2023-09-07T01:58:21;6.80;;;5.00;;
68792;SDS011;55778;54.346;10.210;2023-09-07T02:00:49;9.52;;;5.95;;
68792;SDS011;55778;54.346;10.210;2023-09-07T02:03:14;13.40;;;8.48;;
68792;SDS011;55778;54.346;10.210;2023-09-07T02:05:40;8.95;;;5.80;;
68792;SDS011;55778;54.346;10.210;2023-09-07T02:08:05;15.73;;;9.95;;
68792;SDS011;55778;54.346;10.210;2023-09-07T02:10:31;11.80;;;7.78;;
68792;SDS011;55778;54.346;10.210;2023-09-07T02:12:56;7.57;;;5.75;;
68792;SDS011;55778;54.346;10.210;2023-09-07T02:15:23;8.25;;;5.35;;
68792;SDS011;55778;54.346;10.210;2023-09-07T02:17:48;6.32;;;5.07;;
68792;SDS011;55778;54.346;10.210;2023-09-07T02:20:14;6.63;;;5.03;;
68792;SDS011;55778;54.346;10.210;2023-09-07T02:22:39;10.30;;;5.03;;
68792;SDS011;55778;54.346;10.210;2023-09-07T02:25:05;6.65;;;5.05;;
68792;SDS011;55778;54.346;10.210;2023-09-07T02:27:31;8.32;;;5.47;;
68792;SDS011;55778;54.346;10.210;2023-09-07T02:29:57;8.00;;;5.25;;
68792;SDS011;55778;54.346;10.210;2023-09-07T02:32:23;6.38;;;5.20;;
68792;SDS011;55778;54.346;10.210;2023-09-07T02:34:48;12.65;;;7.13;;
68792;SDS011;55778;54.346;10.210;2023-09-07T02:37:14;8.55;;;6.13;;
68792;SDS011;55778;54.346;10.210;2023-09-07T02:39:41;7.57;;;5.70;;
68792;SDS011;55778;54.346;10.210;2023-09-07T02:42:06;6.32;;;5.25;;
68792;SDS011;55778;54.346;10.210;2023-09-07T02:44:32;7.10;;;5.43;;
68792;SDS011;55778;54.346;10.210;2023-09-07T02:46:57;7.97;;;5.55;;
68792;SDS011;55778;54.346;10.210;2023-09-07T02:49:22;7.38;;;5.18;;
68792;SDS011;55778;54.346;10.210;2023-09-07T02:51:48;7.88;;;5.60;;
68792;SDS011;55778;54.346;10.210;2023-09-07T02:54:13;13.38;;;8.95;;
68792;SDS011;55778;54.346;10.210;2023-09-07T02:56:38;10.02;;;7.43;;
68792;SDS011;55778;54.346;10.210;2023-09-07T02:59:04;9.57;;;6.82;;
68792;SDS011;55778;54.346;10.210;2023-09-07T03:01:30;7.72;;;5.88;;
68792;SDS011;55778;54.346;10.210;2023-09-07T03:03:56;8.77;;;5.88;;
68792;SDS011;55778;54.346;10.210;2023-09-07T03:06:21;8.55;;;5.65;;
68792;SDS011;55778;54.346;10.210;2023-09-07T03:08:46;8.27;;;6.20;;
68792;SDS011;55778;54.346;10.210;2023-09-07T03:11:12;9.27;;;6.32;;
68792;SDS011;55778;54.346;10.210;2023-09-07T03:13:38;9.10;;;6.28;;
68792;SDS011;55778;54.346;10.210;2023-09-07T03:16:04;9.38;;;6.18;;
68792;SDS011;55778;54.346;10.210;2023-09-07T03:18:30;10.50;;;7.65;;
68792;SDS011;55778;54.346;10.210;2023-09-07T03:20:57;13.70;;;8.52;;
68792;SDS011;55778;54.346;10.210;2023-09-07T03:23:24;11.73;;;7.68;;
68792;SDS011;55778;54.346;10.210;2023-09-07T03:25:50;10.60;;;6.60;;
68792;SDS011;55778;54.346;10.210;2023-09-07T03:28:15;13.55;;;7.40;;
68792;SDS011;55778;54.346;10.210;2023-09-07T03:30:41;10.40;;;6.45;;
68792;SDS011;55778;54.346;10.210;2023-09-07T03:33:06;11.38;;;7.47;;
68792;SDS011;55778;54.346;10.210;2023-09-07T03:35:32;10.43;;;7.65;;
68792;SDS011;55778;54.346;10.210;2023-09-07T03:37:57;10.48;;;7.38;;
68792;SDS011;55778;54.346;10.210;2023-09-07T03:40:23;12.80;;;7.30;;
68792;SDS011;55778;54.346;10.210;2023-09-07T03:42:49;13.93;;;7.25;;
68792;SDS011;55778;54.346;10.210;2023-09-07T03:45:15;11.63;;;7.60;;
68792;SDS011;55778;54.346;10.210;2023-09-07T03:47:40;13.15;;;7.82;;
68792;SDS011;55778;54.346;10.210;2023-09-07T03:50:06;15.10;;;9.27;;
68792;SDS011;55778;54.346;10.210;2023-09-07T03:52:32;13.75;;;8.68;;
68792;SDS011;55778;54.346;10.210;2023-09-07T03:54:58;11.75;;;7.72;;
68792;SDS011;55778;54.346;10.210;2023-09-07T03:57:25;13.15;;;8.80;;
68792;SDS011;55778;54.346;10.210;2023-09-07T03:59:51;12.95;;;8.10;;
68792;SDS011;55778;54.346;10.210;2023-09-07T04:02:16;14.13;;;9.45;;
68792;SDS011;55778;54.346;10.210;2023-09-07T04:04:49;13.35;;;8.43;;
68792;SDS011;55778;54.346;10.210;2023-09-07T04:07:18;14.63;;;8.70;;
68792;SDS011;55778;54.346;10.210;2023-09-07T04:09:44;13.90;;;8.38;;
68792;SDS011;55778;54.346;10.210;2023-09-07T04:12:10;13.02;;;8.85;;
68792;SDS011;55778;54.346;10.210;2023-09-07T04:14:36;15.02;;;9.02;;
68792;SDS011;55778;54.346;10.210;2023-09-07T04:17:02;15.45;;;9.40;;
68792;SDS011;55778;54.346;10.210;2023-09-07T04:19:27;15.27;;;10.55;;
68792;SDS011;55778;54.346;10.210;2023-09-07T04:21:52;13.38;;;8.85;;
68792;SDS011;55778;54.346;10.210;2023-09-07T04:24:18;18.00;;;10.05;;
68792;SDS011;55778;54.346;10.210;2023-09-07T04:26:44;17.98;;;10.02;;
68792;SDS011;55778;54.346;10.210;2023-09-07T04:29:09;16.92;;;10.63;;
68792;SDS011;55778;54.346;10.210;2023-09-07T04:31:35;19.98;;;11.57;;
68792;SDS011;55778;54.346;10.210;2023-09-07T04:34:01;19.55;;;12.15;;
68792;SDS011;55778;54.346;10.210;2023-09-07T04:36:27;20.75;;;12.30;;
68792;SDS011;55778;54.346;10.210;2023-09-07T04:38:53;21.27;;;12.18;;
68792;SDS011;55778;54.346;10.210;2023-09-07T04:41:18;19.63;;;11.60;;
68792;SDS011;55778;54.346;10.210;2023-09-07T04:43:44;20.90;;;12.18;;
68792;SDS011;55778;54.346;10.210;2023-09-07T04:46:10;18.65;;;11.75;;
68792;SDS011;55778;54.346;10.210;2023-09-07T04:48:36;20.95;;;12.02;;
68792;SDS011;55778;54.346;10.210;2023-09-07T04:51:02;23.10;;;13.38;;
68792;SDS011;55778;54.346;10.210;2023-09-07T04:53:29;19.10;;;11.73;;
68792;SDS011;55778;54.346;10.210;2023-09-07T04:55:57;20.45;;;12.57;;
68792;SDS011;55778;54.346;10.210;2023-09-07T04:58:23;18.33;;;11.95;;
68792;SDS011;55778;54.346;10.210;2023-09-07T05:00:48;20.63;;;12.52;;
68792;SDS011;55778;54.346;10.210;2023-09-07T05:03:14;21.05;;;12.68;;
68792;SDS011;55778;54.346;10.210;2023-09-07T05:05:40;19.55;;;12.27;;
68792;SDS011;55778;54.346;10.210;2023-09-07T05:08:06;21.60;;;12.20;;
68792;SDS011;55778;54.346;10.210;2023-09-07T05:10:35;21.63;;;13.45;;
68792;SDS011;55778;54.346;10.210;2023-09-07T05:13:02;19.77;;;12.55;;
68792;SDS011;55778;54.346;10.210;2023-09-07T05:15:27;21.52;;;13.25;;
68792;SDS011;55778;54.346;10.210;2023-09-07T05:17:53;22.67;;;12.60;;
68792;SDS011;55778;54.346;10.210;2023-09-07T05:20:19;22.10;;;12.43;;
68792;SDS011;55778;54.346;10.210;2023-09-07T05:22:45;19.23;;;12.13;;
68792;SDS011;55778;54.346;10.210;2023-09-07T05:25:10;18.65;;;11.73;;
68792;SDS011;55778;54.346;10.210;2023-09-07T05:27:36;17.30;;;11.60;;
68792;SDS011;55778;54.346;10.210;2023-09-07T05:30:02;20.73;;;11.02;;
68792;SDS011;55778;54.346;10.210;2023-09-07T05:32:28;19.30;;;11.10;;
68792;SDS011;55778;54.346;10.210;2023-09-07T05:34:54;16.38;;;10.95;;
68792;SDS011;55778;54.346;10.210;2023-09-07T05:37:19;18.83;;;11.00;;
68792;SDS011;55778;54.346;10.210;2023-09-07T05:39:44;14.98;;;10.02;;
68792;SDS011;55778;54.346;10.210;2023-09-07T05:42:10;15.18;;;10.27;;
68792;SDS011;55778;54.346;10.210;2023-09-07T05:44:37;15.52;;;9.18;;
68792;SDS011;55778;54.346;10.210;2023-09-07T05:47:03;16.20;;;9.88;;
68792;SDS011;55778;54.346;10.210;2023-09-07T05:49:29;13.70;;;9.50;;
68792;SDS011;55778;54.346;10.210;2023-09-07T05:51:54;13.48;;;8.63;;
68792;SDS011;55778;54.346;10.210;2023-09-07T05:54:20;16.20;;;9.57;;
68792;SDS011;55778;54.346;10.210;2023-09-07T05:56:45;11.50;;;8.45;;
68792;SDS011;55778;54.346;10.210;2023-09-07T05:59:11;12.82;;;8.60;;
68792;SDS011;55778;54.346;10.210;2023-09-07T06:01:36;11.45;;;8.35;;
68792;SDS011;55778;54.346;10.210;2023-09-07T06:04:01;12.73;;;8.00;;
68792;SDS011;55778;54.346;10.210;2023-09-07T06:06:28;15.10;;;8.07;;
68792;SDS011;55778;54.346;10.210;2023-09-07T06:08:54;9.57;;;7.50;;
68792;SDS011;55778;54.346;10.210;2023-09-07T06:11:19;11.43;;;7.95;;
68792;SDS011;55778;54.346;10.210;2023-09-07T06:13:44;13.10;;;8.18;;
68792;SDS011;55778;54.346;10.210;2023-09-07T06:16:11;12.25;;;7.75;;
68792;SDS011;55778;54.346;10.210;2023-09-07T06:18:37;14.55;;;9.68;;
68792;SDS011;55778;54.346;10.210;2023-09-07T06:21:03;13.75;;;7.97;;
68792;SDS011;55778;54.346;10.210;2023-09-07T06:23:30;14.20;;;7.18;;
68792;SDS011;55778;54.346;10.210;2023-09-07T06:25:56;12.65;;;8.93;;
68792;SDS011;55778;54.346;10.210;2023-09-07T06:28:22;10.88;;;7.13;;
68792;SDS011;55778;54.346;10.210;2023-09-07T06:30:47;10.05;;;6.47;;
68792;SDS011;55778;54.346;10.210;2023-09-07T06:33:12;8.07;;;5.70;;
68792;SDS011;55778;54.346;10.210;2023-09-07T06:35:38;10.13;;;5.97;;
68792;SDS011;55778;54.346;10.210;2023-09-07T06:38:03;9.43;;;6.18;;
68792;SDS011;55778;54.346;10.210;2023-09-07T06:40:29;8.32;;;6.10;;
68792;SDS011;55778;54.346;10.210;2023-09-07T06:42:55;9.10;;;6.05;;
68792;SDS011;55778;54.346;10.210;2023-09-07T06:45:21;8.23;;;5.38;;
68792;SDS011;55778;54.346;10.210;2023-09-07T06:47:49;8.30;;;5.88;;
68792;SDS011;55778;54.346;10.210;2023-09-07T06:50:15;9.10;;;6.13;;
68792;SDS011;55778;54.346;10.210;2023-09-07T06:52:40;11.55;;;6.55;;
68792;SDS011;55778;54.346;10.210;2023-09-07T06:55:06;13.50;;;9.70;;
68792;SDS011;55778;54.346;10.210;2023-09-07T06:57:31;9.18;;;6.57;;
68792;SDS011;55778;54.346;10.210;2023-09-07T06:59:58;8.50;;;5.90;;
68792;SDS011;55778;54.346;10.210;2023-09-07T07:02:24;9.43;;;6.72;;
68792;SDS011;55778;54.346;10.210;2023-09-07T07:04:49;8.27;;;6.80;;
68792;SDS011;55778;54.346;10.210;2023-09-07T07:07:17;10.20;;;6.55;;
68792;SDS011;55778;54.346;10.210;2023-09-07T07:09:43;9.25;;;6.32;;
68792;SDS011;55778;54.346;10.210;2023-09-07T07:12:08;7.78;;;6.50;;
68792;SDS011;55778;54.346;10.210;2023-09-07T07:14:34;8.27;;;6.35;;
68792;SDS011;55778;54.346;10.210;2023-09-07T07:16:59;8.23;;;6.10;;
68792;SDS011;55778;54.346;10.210;2023-09-07T07:19:26;9.63;;;5.63;;
68792;SDS011;55778;54.346;10.210;2023-09-07T07:21:52;8.70;;;6.47;;
68792;SDS011;55778;54.346;10.210;2023-09-07T07:24:17;7.15;;;5.55;;
68792;SDS011;55778;54.346;10.210;2023-09-07T07:26:43;6.40;;;5.38;;
68792;SDS011;55778;54.346;10.210;2023-09-07T07:29:08;7.32;;;6.07;;
68792;SDS011;55778;54.346;10.210;2023-09-07T07:31:35;6.03;;;4.85;;
68792;SDS011;55778;54.346;10.210;2023-09-07T07:34:01;7.53;;;5.60;;
68792;SDS011;55778;54.346;10.210;2023-09-07T07:36:26;7.90;;;5.93;;
68792;SDS011;55778;54.346;10.210;2023-09-07T07:38:52;8.75;;;6.05;;
68792;SDS011;55778;54.346;10.210;2023-09-07T07:41:17;8.80;;;6.38;;
68792;SDS011;55778;54.346;10.210;2023-09-07T07:43:42;7.38;;;5.78;;
68792;SDS011;55778;54.346;10.210;2023-09-07T07:46:08;7.43;;;5.53;;
68792;SDS011;55778;54.346;10.210;2023-09-07T07:48:33;7.28;;;5.22;;
68792;SDS011;55778;54.346;10.210;2023-09-07T07:51:02;6.93;;;5.72;;
68792;SDS011;55778;54.346;10.210;2023-09-07T07:53:29;8.35;;;5.75;;
68792;SDS011;55778;54.346;10.210;2023-09-07T07:55:54;6.57;;;4.90;;
68792;SDS011;55778;54.346;10.210;2023-09-07T07:58:21;8.40;;;5.47;;
68792;SDS011;55778;54.346;10.210;2023-09-07T08:00:46;7.85;;;5.38;;
68792;SDS011;55778;54.346;10.210;2023-09-07T08:03:12;7.03;;;4.70;;
68792;SDS011;55778;54.346;10.210;2023-09-07T08:05:38;6.85;;;4.97;;
68792;SDS011;55778;54.346;10.210;2023-09-07T08:08:05;6.22;;;5.10;;
68792;SDS011;55778;54.346;10.210;2023-09-07T08:10:33;5.60;;;4.97;;
68792;SDS011;55778;54.346;10.210;2023-09-07T08:13:00;5.68;;;5.13;;
68792;SDS011;55778;54.346;10.210;2023-09-07T08:15:26;7.18;;;4.90;;
68792;SDS011;55778;54.346;10.210;2023-09-07T08:17:52;6.05;;;4.28;;
68792;SDS011;55778;54.346;10.210;2023-09-07T08:20:18;6.40;;;4.80;;
68792;SDS011;55778;54.346;10.210;2023-09-07T08:22:43;6.28;;;4.13;;
68792;SDS011;55778;54.346;10.210;2023-09-07T08:25:11;4.50;;;3.92;;
68792;SDS011;55778;54.346;10.210;2023-09-07T08:27:43;4.88;;;4.30;;
68792;SDS011;55778;54.346;10.210;2023-09-07T08:30:10;6.15;;;4.15;;
68792;SDS011;55778;54.346;10.210;2023-09-07T08:32:36;6.70;;;4.50;;
68792;SDS011;55778;54.346;10.210;2023-09-07T08:35:03;5.97;;;4.35;;
68792;SDS011;55778;54.346;10.210;2023-09-07T08:37:32;5.93;;;4.20;;
68792;SDS011;55778;54.346;10.210;2023-09-07T08:39:58;5.68;;;4.18;;
68792;SDS011;55778;54.346;10.210;2023-09-07T08:42:24;5.55;;;4.15;;
68792;SDS011;55778;54.346;10.210;2023-09-07T08:44:50;4.53;;;3.75;;
68792;SDS011;55778;54.346;10.210;2023-09-07T08:47:19;4.38;;;3.63;;
68792;SDS011;55778;54.346;10.210;2023-09-07T08:49:46;5.55;;;4.03;;
68792;SDS011;55778;54.346;10.210;2023-09-07T08:52:12;6.40;;;3.72;;
68792;SDS011;55778;54.346;10.210;2023-09-07T08:54:41;7.63;;;4.20;;
68792;SDS011;55778;54.346;10.210;2023-09-07T08:57:08;4.15;;;3.03;;
68792;SDS011;55778;54.346;10.210;2023-09-07T08:59:35;4.47;;;3.50;;
68792;SDS011;55778;54.346;10.210;2023-09-07T09:02:06;4.63;;;3.65;;
68792;SDS011;55778;54.346;10.210;2023-09-07T09:04:34;5.78;;;3.65;;
68792;SDS011;55778;54.346;10.210;2023-09-07T09:07:00;4.90;;;3.97;;
68792;SDS011;55778;54.346;10.210;2023-09-07T09:09:28;4.60;;;3.72;;
68792;SDS011;55778;54.346;10.210;2023-09-07T09:11:54;7.43;;;4.35;;
68792;SDS011;55778;54.346;10.210;2023-09-07T09:14:20;5.43;;;3.85;;
68792;SDS011;55778;54.346;10.210;2023-09-07T09:16:51;7.55;;;4.20;;
68792;SDS011;55778;54.346;10.210;2023-09-07T09:19:17;4.40;;;4.00;;
68792;SDS011;55778;54.346;10.210;2023-09-07T09:21:44;4.32;;;3.92;;
68792;SDS011;55778;54.346;10.210;2023-09-07T09:24:10;5.50;;;4.20;;
68792;SDS011;55778;54.346;10.210;2023-09-07T09:26:36;4.25;;;3.85;;
68792;SDS011;55778;54.346;10.210;2023-09-07T09:29:02;4.10;;;3.70;;
68792;SDS011;55778;54.346;10.210;2023-09-07T09:31:28;4.07;;;3.67;;
68792;SDS011;55778;54.346;10.210;2023-09-07T09:33:55;6.00;;;4.28;;
68792;SDS011;55778;54.346;10.210;2023-09-07T09:36:21;7.05;;;4.20;;
68792;SDS011;55778;54.346;10.210;2023-09-07T09:38:48;4.30;;;3.65;;
68792;SDS011;55778;54.346;10.210;2023-09-07T09:41:19;4.43;;;3.72;;
68792;SDS011;55778;54.346;10.210;2023-09-07T09:43:46;4.57;;;3.88;;
68792;SDS011;55778;54.346;10.210;2023-09-07T09:46:14;5.57;;;4.28;;
68792;SDS011;55778;54.346;10.210;2023-09-07T09:48:42;4.70;;;4.20;;
68792;SDS011;55778;54.346;10.210;2023-09-07T09:51:07;5.65;;;3.88;;
68792;SDS011;55778;54.346;10.210;2023-09-07T09:53:33;5.20;;;3.60;;
68792;SDS011;55778;54.346;10.210;2023-09-07T09:55:59;5.75;;;4.47;;
68792;SDS011;55778;54.346;10.210;2023-09-07T09:58:25;4.82;;;4.30;;
68792;SDS011;55778;54.346;10.210;2023-09-07T10:00:54;6.60;;;3.80;;
68792;SDS011;55778;54.346;10.210;2023-09-07T10:05:52;4.57;;;3.70;;
68792;SDS011;55778;54.346;10.210;2023-09-07T10:08:18;4.82;;;3.60;;
68792;SDS011;55778;54.346;10.210;2023-09-07T10:10:48;5.93;;;3.70;;
68792;SDS011;55778;54.346;10.210;2023-09-07T10:13:28;4.70;;;3.75;;
68792;SDS011;55778;54.346;10.210;2023-09-07T10:16:01;4.90;;;4.30;;
68792;SDS011;55778;54.346;10.210;2023-09-07T10:18:35;5.32;;;3.83;;
68792;SDS011;55778;54.346;10.210;2023-09-07T10:21:04;5.82;;;3.97;;
68792;SDS011;55778;54.346;10.210;2023-09-07T10:26:12;4.30;;;3.90;;
68792;SDS011;55778;54.346;10.210;2023-09-07T10:28:41;6.40;;;3.90;;
68792;SDS011;55778;54.346;10.210;2023-09-07T10:33:42;4.18;;;3.58;;
68792;SDS011;55778;54.346;10.210;2023-09-07T10:36:08;4.07;;;3.67;;
68792;SDS011;55778;54.346;10.210;2023-09-07T10:38:49;4.40;;;3.50;;
68792;SDS011;55778;54.346;10.210;2023-09-07T10:41:17;5.35;;;3.90;;
68792;SDS011;55778;54.346;10.210;2023-09-07T10:43:49;5.25;;;4.10;;
68792;SDS011;55778;54.346;10.210;2023-09-07T10:46:22;5.93;;;3.55;;
68792;SDS011;55778;54.346;10.210;2023-09-07T10:48:49;4.90;;;4.05;;
68792;SDS011;55778;54.346;10.210;2023-09-07T10:51:18;4.22;;;3.78;;
68792;SDS011;55778;54.346;10.210;2023-09-07T10:53:45;6.63;;;3.78;;
68792;SDS011;55778;54.346;10.210;2023-09-07T10:56:11;4.32;;;3.80;;
68792;SDS011;55778;54.346;10.210;2023-09-07T10:58:36;4.88;;;4.30;;
68792;SDS011;55778;54.346;10.210;2023-09-07T11:01:04;4.60;;;3.70;;
68792;SDS011;55778;54.346;10.210;2023-09-07T11:03:30;4.93;;;3.85;;
68792;SDS011;55778;54.346;10.210;2023-09-07T11:05:58;4.35;;;3.88;;
68792;SDS011;55778;54.346;10.210;2023-09-07T11:08:27;4.05;;;3.75;;
68792;SDS011;55778;54.346;10.210;2023-09-07T11:10:54;4.35;;;3.72;;
68792;SDS011;55778;54.346;10.210;2023-09-07T11:13:20;4.03;;;3.63;;
68792;SDS011;55778;54.346;10.210;2023-09-07T11:15:46;4.35;;;3.58;;
68792;SDS011;55778;54.346;10.210;2023-09-07T11:18:12;4.63;;;3.90;;
68792;SDS011;55778;54.346;10.210;2023-09-07T11:20:38;4.45;;;3.58;;
68792;SDS011;55778;54.346;10.210;2023-09-07T11:23:06;4.72;;;4.25;;
68792;SDS011;55778;54.346;10.210;2023-09-07T11:25:35;4.95;;;4.13;;
68792;SDS011;55778;54.346;10.210;2023-09-07T11:28:03;5.85;;;4.00;;
68792;SDS011;55778;54.346;10.210;2023-09-07T11:30:29;4.30;;;3.90;;
68792;SDS011;55778;54.346;10.210;2023-09-07T11:33:05;5.03;;;3.67;;
68792;SDS011;55778;54.346;10.210;2023-09-07T11:35:31;4.35;;;3.67;;
68792;SDS011;55778;54.346;10.210;2023-09-07T11:38:03;5.30;;;4.10;;
68792;SDS011;55778;54.346;10.210;2023-09-07T11:40:30;4.30;;;3.80;;
68792;SDS011;55778;54.346;10.210;2023-09-07T11:42:56;4.78;;;3.97;;
68792;SDS011;55778;54.346;10.210;2023-09-07T11:45:21;4.40;;;3.50;;
68792;SDS011;55778;54.346;10.210;2023-09-07T11:47:47;4.30;;;3.65;;
68792;SDS011;55778;54.346;10.210;2023-09-07T11:50:12;4.75;;;3.72;;
68792;SDS011;55778;54.346;10.210;2023-09-07T11:52:38;4.35;;;3.92;;
68792;SDS011;55778;54.346;10.210;2023-09-07T11:55:03;5.40;;;4.07;;
68792;SDS011;55778;54.346;10.210;2023-09-07T11:57:29;7.22;;;4.50;;
68792;SDS011;55778;54.346;10.210;2023-09-07T11:59:55;5.95;;;4.30;;
68792;SDS011;55778;54.346;10.210;2023-09-07T12:02:20;5.40;;;4.90;;
68792;SDS011;55778;54.346;10.210;2023-09-07T12:04:46;5.10;;;4.32;;
68792;SDS011;55778;54.346;10.210;2023-09-07T12:07:12;5.45;;;4.88;;
68792;SDS011;55778;54.346;10.210;2023-09-07T12:09:38;7.57;;;4.80;;
68792;SDS011;55778;54.346;10.210;2023-09-07T12:12:04;4.85;;;4.40;;
68792;SDS011;55778;54.346;10.210;2023-09-07T12:14:29;4.90;;;4.30;;
68792;SDS011;55778;54.346;10.210;2023-09-07T12:16:56;4.82;;;4.38;;
68792;SDS011;55778;54.346;10.210;2023-09-07T12:19:21;4.70;;;4.20;;
68792;SDS011;55778;54.346;10.210;2023-09-07T12:21:47;5.45;;;4.80;;
68792;SDS011;55778;54.346;10.210;2023-09-07T12:24:12;4.90;;;4.40;;
68792;SDS011;55778;54.346;10.210;2023-09-07T12:26:38;5.13;;;4.63;;
68792;SDS011;55778;54.346;10.210;2023-09-07T12:29:03;5.43;;;4.20;;
68792;SDS011;55778;54.346;10.210;2023-09-07T12:31:29;5.13;;;4.45;;
68792;SDS011;55778;54.346;10.210;2023-09-07T12:33:56;5.28;;;4.60;;
68792;SDS011;55778;54.346;10.210;2023-09-07T12:36:22;5.97;;;5.00;;
68792;SDS011;55778;54.346;10.210;2023-09-07T12:38:47;5.20;;;4.57;;
68792;SDS011;55778;54.346;10.210;2023-09-07T12:41:12;4.97;;;4.47;;
68792;SDS011;55778;54.346;10.210;2023-09-07T12:43:38;7.68;;;5.55;;
68792;SDS011;55778;54.346;10.210;2023-09-07T12:46:04;5.75;;;5.07;;
68792;SDS011;55778;54.346;10.210;2023-09-07T12:48:29;7.18;;;5.30;;
68792;SDS011;55778;54.346;10.210;2023-09-07T12:50:54;6.82;;;5.00;;
68792;SDS011;55778;54.346;10.210;2023-09-07T12:53:20;7.25;;;4.60;;
68792;SDS011;55778;54.346;10.210;2023-09-07T12:55:49;6.72;;;5.63;;
68792;SDS011;55778;54.346;10.210;2023-09-07T12:58:16;7.95;;;5.80;;
68792;SDS011;55778;54.346;10.210;2023-09-07T13:00:41;8.13;;;5.60;;
68792;SDS011;55778;54.346;10.210;2023-09-07T13:03:07;7.40;;;5.95;;
68792;SDS011;55778;54.346;10.210;2023-09-07T13:05:32;10.27;;;6.57;;
68792;SDS011;55778;54.346;10.210;2023-09-07T13:07:58;7.70;;;5.97;;
68792;SDS011;55778;54.346;10.210;2023-09-07T13:10:24;7.47;;;6.35;;
68792;SDS011;55778;54.346;10.210;2023-09-07T13:12:50;9.85;;;6.75;;
68792;SDS011;55778;54.346;10.210;2023-09-07T13:15:15;8.02;;;6.30;;
68792;SDS011;55778;54.346;10.210;2023-09-07T13:17:41;8.52;;;6.45;;
68792;SDS011;55778;54.346;10.210;2023-09-07T13:20:06;9.55;;;6.53;;
68792;SDS011;55778;54.346;10.210;2023-09-07T13:22:32;7.05;;;6.07;;
68792;SDS011;55778;54.346;10.210;2023-09-07T13:24:57;7.10;;;6.40;;
68792;SDS011;55778;54.346;10.210;2023-09-07T13:27:23;9.68;;;6.35;;
68792;SDS011;55778;54.346;10.210;2023-09-07T13:29:50;7.53;;;6.15;;
68792;SDS011;55778;54.346;10.210;2023-09-07T13:32:16;8.75;;;6.50;;
68792;SDS011;55778;54.346;10.210;2023-09-07T13:34:42;9.30;;;6.60;;
68792;SDS011;55778;54.346;10.210;2023-09-07T13:37:07;8.43;;;6.38;;
68792;SDS011;55778;54.346;10.210;2023-09-07T13:39:33;9.23;;;6.30;;
68792;SDS011;55778;54.346;10.210;2023-09-07T13:41:58;7.25;;;6.20;;
68792;SDS011;55778;54.346;10.210;2023-09-07T13:44:23;10.23;;;6.68;;
68792;SDS011;55778;54.346;10.210;2023-09-07T13:46:49;9.20;;;6.97;;
68792;SDS011;55778;54.346;10.210;2023-09-07T13:49:14;10.98;;;6.57;;
68792;SDS011;55778;54.346;10.210;2023-09-07T13:51:40;8.98;;;6.68;;
68792;SDS011;55778;54.346;10.210;2023-09-07T13:54:06;9.50;;;7.20;;
68792;SDS011;55778;54.346;10.210;2023-09-07T13:56:33;10.13;;;7.00;;
68792;SDS011;55778;54.346;10.210;2023-09-07T13:58:58;8.93;;;6.78;;
68792;SDS011;55778;54.346;10.210;2023-09-07T14:01:24;7.85;;;6.65;;
68792;SDS011;55778;54.346;10.210;2023-09-07T14:03:49;7.68;;;6.43;;
68792;SDS011;55778;54.346;10.210;2023-09-07T14:06:15;12.38;;;6.90;;
68792;SDS011;55778;54.346;10.210;2023-09-07T14:08:42;8.85;;;6.72;;
68792;SDS011;55778;54.346;10.210;2023-09-07T14:11:09;11.20;;;6.55;;
68792;SDS011;55778;54.346;10.210;2023-09-07T14:13:34;14.30;;;7.20;;
68792;SDS011;55778;54.346;10.210;2023-09-07T14:16:00;8.38;;;6.63;;
68792;SDS011;55778;54.346;10.210;2023-09-07T14:18:25;8.88;;;6.82;;
68792;SDS011;55778;54.346;10.210;2023-09-07T14:20:51;10.57;;;7.00;;
68792;SDS011;55778;54.346;10.210;2023-09-07T14:23:17;7.88;;;6.70;;
68792;SDS011;55778;54.346;10.210;2023-09-07T14:25:45;8.68;;;7.20;;
68792;SDS011;55778;54.346;10.210;2023-09-07T14:28:12;8.93;;;7.60;;
68792;SDS011;55778;54.346;10.210;2023-09-07T14:30:47;10.40;;;7.68;;
68792;SDS011;55778;54.346;10.210;2023-09-07T14:33:14;8.82;;;7.32;;